DeKalb Peachtree Airport
KPDK : rendu visible

Aérodrome :











RETROUVEZ-NOUS SUR...

 
LOGIN :

S'inscrire | Disclaimer

   EN    FR    IT 

 









Légende :    VFR   VFR Marginal   IFR   IFR Intensif   IFR Très Intensif
Visi : 
Plafond : 
>= 8 km
>= 3000ft
5 à 8 km
1000 à 3000 ft
1500m à 5 km
500 à 1000 ft
800 à 1500m
200 à 500 ft
< 800m
< 200 ft
Symboles :   Orages  Brouillard  Fortes neiges  Fortes précipitations  Vent > 20 kt






- Altitude de l'aérodrome : 1003 ft


KPDK - DeKalb Peachtree

DERNIER METAR :
  • 081253Z 24003KT 6SM BR OVC005 17/16 A2990 RMK AO2 SLP117 T01720161

METARs EXPIRÉS :
  • 081153Z 24004KT 7SM OVC005 17/16 A2989 RMK AO2 SLP114 T01670161 10167 20144 53005
  • 081053Z 26004KT 10SM OVC007 17/16 A2987 RMK AO2 SLP109 T01670156
  • 080953Z AUTO 28005KT 10SM OVC007 17/15 A2987 RMK AO2 SLP105 T01670150

TAF KPDK
Valide du 08 à 12h jusqu'au 09 à 12h UTC


081120Z 0812/0912 27005KT P6SM VCSH OVC005
TEMPO 0812/0814 5SM -DZ
FM081500 28009KT P6SM SCT007 BKN015
FM081700 27010G18KT P6SM VCSH BKN040
PROB30 0821/0901 5SM TSRA BKN040CB
FM090100 25007KT P6SM SCT050 SCT250
FM090900 25012G20KT P6SM VCSH SCT008 BKN025
PROB30 0910/0912 VRB20G30KT 4SM TSRA BKN008 OVC015CB



MET'MAP, la Météo Aéronautique d'un coup d'oeil ! - Copyright ORBIFLY Décembre 2007 - Disclaimer

ORBIFLY MET'MAP TEAM :

Programmation & Développement : Alexandra Zaïnal
Sur une idée originale de : Baudouin d'Aumeries
Assistance à la programmation : Marc-Olivier Méhu
Soutien technique & logistique : Manuel Goepfert

Contact : metmap@orbifly.com




SOURCES & CREDITS :

   NOAA       Earth
Advisory